createdAt,value
2023-02-15T00:00:50.276Z,15.90
2023-02-15T00:03:24.172Z,15.61
2023-02-15T00:05:57.580Z,17.36
2023-02-15T00:08:29.911Z,16.79
2023-02-15T00:11:12.260Z,16.79
2023-02-15T00:13:43.824Z,16.87
2023-02-15T00:16:15.930Z,16.61
2023-02-15T00:18:48.214Z,16.54
2023-02-15T00:21:20.499Z,16.64
2023-02-15T00:23:54.333Z,16.72
2023-02-15T00:26:28.837Z,16.60
2023-02-15T00:29:03.408Z,16.65
2023-02-15T00:31:36.429Z,16.57
2023-02-15T00:34:14.693Z,16.67
2023-02-15T00:36:49.001Z,16.72
2023-02-15T00:39:23.076Z,16.46
2023-02-15T00:41:55.390Z,16.35
2023-02-15T00:44:29.299Z,16.30
2023-02-15T00:47:01.263Z,16.32
2023-02-15T00:49:39.931Z,16.67
2023-02-15T00:52:14.430Z,16.64
2023-02-15T00:54:48.844Z,16.21
2023-02-15T00:57:21.001Z,16.24
2023-02-15T00:59:54.806Z,16.01
2023-02-15T01:02:27.226Z,16.55
2023-02-15T01:04:59.856Z,16.48
2023-02-15T01:07:36.920Z,16.32
2023-02-15T01:10:09.879Z,16.31
2023-02-15T01:12:41.686Z,16.26
2023-02-15T01:15:14.943Z,16.23
2023-02-15T01:17:48.509Z,16.57
2023-02-15T01:20:26.381Z,16.44
2023-02-15T01:22:59.483Z,16.28
2023-02-15T01:25:31.388Z,16.56
2023-02-15T01:28:05.501Z,16.63
2023-02-15T01:30:37.375Z,16.74
2023-02-15T01:33:11.740Z,16.46
2023-02-15T01:35:46.001Z,16.17
2023-02-15T01:38:38.431Z,16.25
2023-02-15T01:41:25.449Z,16.14
2023-02-15T01:44:03.589Z,16.28
2023-02-15T01:46:39.907Z,16.48
2023-02-15T01:49:20.077Z,16.30
2023-02-15T01:51:54.411Z,16.38
2023-02-15T01:54:32.940Z,16.51
2023-02-15T01:57:08.952Z,16.54
2023-02-15T01:59:42.862Z,16.05
2023-02-15T02:02:18.113Z,15.75
2023-02-15T02:04:55.278Z,16.42
2023-02-15T02:07:34.016Z,16.65
2023-02-15T02:10:07.621Z,17.10
2023-02-15T02:12:42.540Z,16.95
2023-02-15T02:15:15.533Z,16.87
2023-02-15T02:17:57.583Z,16.84
2023-02-15T02:20:59.449Z,16.66
2023-02-15T02:23:55.933Z,16.71
2023-02-15T02:26:49.969Z,16.70
2023-02-15T02:29:28.330Z,17.02
2023-02-15T02:32:36.851Z,17.11
2023-02-15T02:35:32.784Z,17.08
2023-02-15T02:38:09.039Z,16.99
2023-02-15T02:40:59.064Z,17.17
2023-02-15T02:43:39.992Z,17.71
2023-02-15T02:46:18.723Z,17.24
2023-02-15T02:48:53.196Z,16.79
2023-02-15T02:51:26.173Z,17.62
2023-02-15T02:54:03.117Z,17.04
2023-02-15T02:56:39.908Z,16.82
2023-02-15T02:59:27.222Z,16.31
2023-02-15T03:02:02.972Z,16.25
2023-02-15T03:04:36.739Z,16.76
2023-02-15T03:07:12.377Z,16.63
2023-02-15T03:09:50.436Z,16.50
2023-02-15T03:12:25.547Z,17.07
2023-02-15T03:15:00.994Z,15.42
2023-02-15T03:17:38.125Z,16.29
2023-02-15T03:20:16.249Z,16.53
2023-02-15T03:22:55.794Z,16.56
2023-02-15T03:25:44.705Z,15.52
2023-02-15T03:28:21.261Z,16.09
2023-02-15T03:30:54.787Z,16.27
2023-02-15T03:33:28.204Z,15.60
2023-02-15T03:36:20.203Z,16.05
2023-02-15T03:39:02.548Z,15.84
2023-02-15T03:41:36.490Z,16.28
2023-02-15T03:44:21.579Z,16.52
2023-02-15T03:46:57.704Z,16.18
2023-02-15T03:49:31.279Z,15.46
2023-02-15T03:52:03.553Z,16.33
2023-02-15T03:54:47.584Z,16.39
2023-02-15T03:57:46.502Z,16.78
2023-02-15T04:00:37.970Z,16.19
2023-02-15T04:03:26.416Z,15.74
2023-02-15T04:05:57.032Z,16.17
2023-02-15T04:08:29.220Z,16.85
2023-02-15T04:10:59.832Z,16.71
2023-02-15T04:13:36.676Z,16.72
2023-02-15T04:16:08.601Z,16.75
2023-02-15T04:18:59.696Z,17.13
2023-02-15T04:21:50.365Z,16.87
2023-02-15T04:24:39.092Z,17.01
2023-02-15T04:27:10.078Z,16.88
2023-02-15T04:29:40.610Z,16.86
2023-02-15T04:32:11.224Z,16.45
2023-02-15T04:34:41.898Z,15.78
2023-02-15T04:37:12.595Z,16.48
2023-02-15T04:39:43.242Z,16.77
2023-02-15T04:42:13.809Z,17.31
2023-02-15T04:44:44.807Z,17.14
2023-02-15T04:47:15.441Z,17.20
2023-02-15T04:49:46.206Z,16.70
2023-02-15T04:52:18.797Z,16.98
2023-02-15T04:54:49.428Z,17.28
2023-02-15T04:57:19.983Z,17.45
2023-02-15T04:59:50.579Z,17.38
2023-02-15T05:02:21.600Z,17.73
2023-02-15T05:04:52.272Z,18.00
2023-02-15T05:07:22.848Z,17.03
2023-02-15T05:09:54.061Z,16.61
2023-02-15T05:12:24.700Z,16.63
2023-02-15T05:14:56.665Z,16.82
2023-02-15T05:17:27.308Z,16.60
2023-02-15T05:19:57.941Z,17.56
2023-02-15T05:22:28.564Z,17.87
2023-02-15T05:25:17.044Z,17.95
2023-02-15T05:28:05.893Z,17.67
2023-02-15T05:30:37.317Z,17.44
2023-02-15T05:33:09.841Z,15.91
2023-02-15T05:35:40.542Z,16.22
2023-02-15T05:38:11.301Z,16.63
2023-02-15T05:40:42.108Z,17.17
2023-02-15T05:43:12.690Z,15.54
2023-02-15T05:45:44.749Z,16.26
2023-02-15T05:48:15.387Z,15.59
2023-02-15T05:50:46.705Z,16.63
2023-02-15T05:53:17.323Z,16.49
2023-02-15T05:55:47.913Z,16.72
2023-02-15T05:58:18.534Z,16.37
2023-02-15T06:00:49.486Z,16.38
2023-02-15T06:03:20.085Z,17.20
2023-02-15T06:05:50.788Z,17.73
2023-02-15T06:08:21.768Z,17.58
2023-02-15T06:10:53.568Z,17.76
2023-02-15T06:13:24.122Z,17.89
2023-02-15T06:15:55.570Z,18.27
2023-02-15T06:18:27.737Z,18.22
2023-02-15T06:20:58.377Z,17.59
2023-02-15T06:23:29.142Z,17.65
2023-02-15T06:25:59.853Z,17.49
2023-02-15T06:28:30.757Z,16.58
2023-02-15T06:31:01.528Z,17.19
2023-02-15T06:33:34.109Z,17.71
2023-02-15T06:36:05.212Z,17.69
2023-02-15T06:38:36.035Z,17.62
2023-02-15T06:41:06.634Z,17.70
2023-02-15T06:43:37.570Z,18.20
2023-02-15T06:46:08.857Z,18.31
2023-02-15T06:48:39.504Z,17.49
2023-02-15T06:51:10.308Z,17.70
2023-02-15T06:53:42.452Z,17.64
2023-02-15T06:56:14.270Z,17.85
2023-02-15T06:58:47.105Z,17.74
2023-02-15T07:01:18.435Z,17.77
2023-02-15T07:03:49.007Z,17.99
2023-02-15T07:06:19.766Z,17.77
2023-02-15T07:08:50.568Z,18.13
2023-02-15T07:11:39.324Z,17.79
2023-02-15T07:14:09.896Z,17.81
2023-02-15T07:16:40.710Z,17.64
2023-02-15T07:19:11.661Z,17.37
2023-02-15T07:21:42.284Z,17.40
2023-02-15T07:24:18.901Z,16.82
2023-02-15T07:26:49.523Z,17.01
2023-02-15T07:29:20.340Z,17.43
2023-02-15T07:31:51.082Z,17.36
2023-02-15T07:34:21.759Z,17.17
2023-02-15T07:36:55.274Z,17.24
2023-02-15T07:39:26.338Z,16.33
2023-02-15T07:41:57.290Z,17.20
2023-02-15T07:44:27.848Z,17.52
2023-02-15T07:47:00.843Z,17.62
2023-02-15T07:49:31.958Z,16.96
2023-02-15T07:52:04.646Z,17.58
2023-02-15T07:54:35.304Z,17.23
2023-02-15T07:57:06.373Z,17.66
2023-02-15T07:59:36.900Z,17.39
2023-02-15T08:02:12.160Z,17.22
2023-02-15T08:04:43.049Z,17.63
2023-02-15T08:07:14.667Z,17.85
2023-02-15T08:09:45.220Z,17.03
2023-02-15T08:12:16.563Z,16.95
2023-02-15T08:14:47.696Z,17.52
2023-02-15T08:17:18.284Z,17.52
2023-02-15T08:19:48.983Z,16.53
2023-02-15T08:22:19.541Z,17.57
2023-02-15T08:24:50.293Z,18.05
2023-02-15T08:27:23.309Z,17.68
2023-02-15T08:29:55.183Z,18.36
2023-02-15T08:32:27.200Z,18.36
2023-02-15T08:34:58.012Z,17.30
2023-02-15T08:37:28.939Z,16.63
2023-02-15T08:39:59.545Z,16.99
2023-02-15T08:42:30.216Z,17.01
2023-02-15T08:45:00.826Z,17.89
2023-02-15T08:47:31.513Z,17.37
2023-02-15T08:50:02.116Z,17.00
2023-02-15T08:52:44.893Z,16.64
2023-02-15T08:55:12.176Z,17.10
2023-02-15T08:57:44.415Z,17.72
2023-02-15T09:00:16.012Z,16.90
2023-02-15T09:02:46.574Z,16.86
2023-02-15T09:05:17.365Z,15.02
2023-02-15T09:07:50.272Z,15.95
2023-02-15T09:10:23.746Z,17.06
2023-02-15T09:12:55.909Z,17.07
2023-02-15T09:15:29.091Z,16.12
2023-02-15T09:18:03.726Z,17.54
2023-02-15T09:20:40.239Z,16.78
2023-02-15T09:23:21.925Z,15.77
2023-02-15T09:25:45.910Z,16.76
2023-02-15T09:28:20.880Z,16.10
2023-02-15T09:30:54.508Z,16.68
2023-02-15T09:33:38.012Z,15.56
2023-02-15T09:36:19.012Z,16.37
2023-02-15T09:38:54.400Z,16.07
2023-02-15T09:41:46.376Z,17.25
2023-02-15T09:44:34.758Z,16.91
2023-02-15T09:47:18.626Z,17.03
2023-02-15T09:50:06.653Z,16.40
2023-02-15T09:52:59.788Z,16.99
2023-02-15T09:55:38.761Z,15.79
2023-02-15T09:58:42.917Z,16.49
2023-02-15T10:01:28.611Z,16.89
2023-02-15T10:04:22.881Z,16.90
2023-02-15T10:07:27.418Z,17.63
2023-02-15T10:10:08.909Z,17.91
2023-02-15T10:12:51.032Z,17.24
2023-02-15T10:15:32.187Z,16.45
2023-02-15T10:18:15.753Z,17.13
2023-02-15T10:21:05.584Z,16.33
2023-02-15T10:24:00.935Z,15.62
2023-02-15T10:26:47.880Z,16.78
2023-02-15T10:29:43.868Z,16.05
2023-02-15T10:32:28.223Z,15.40
2023-02-15T10:35:18.485Z,16.05
2023-02-15T10:37:56.313Z,15.56
2023-02-15T10:40:33.213Z,16.57
2023-02-15T10:43:10.889Z,15.72
2023-02-15T10:46:04.016Z,16.87
2023-02-15T10:48:54.743Z,16.64
2023-02-15T10:51:31.334Z,17.32
2023-02-15T10:54:15.908Z,16.03
2023-02-15T10:56:50.304Z,16.79
2023-02-15T10:59:39.933Z,16.27
2023-02-15T11:02:19.960Z,18.63
2023-02-15T11:05:28.525Z,18.62
2023-02-15T11:08:02.688Z,17.57
2023-02-15T11:10:44.503Z,17.18
2023-02-15T11:13:24.272Z,17.09
2023-02-15T11:16:05.298Z,17.61
2023-02-15T11:19:01.297Z,17.15
2023-02-15T11:21:39.306Z,17.27
2023-02-15T11:24:22.509Z,17.08
2023-02-15T11:27:06.647Z,17.32
2023-02-15T11:29:51.654Z,16.15
2023-02-15T11:32:36.748Z,15.42
2023-02-15T11:35:15.387Z,17.82
2023-02-15T11:37:52.627Z,16.27
2023-02-15T11:40:56.217Z,16.79
2023-02-15T11:44:04.275Z,15.82
2023-02-15T11:46:36.460Z,15.68
2023-02-15T11:49:37.230Z,17.02
2023-02-15T11:52:12.522Z,17.16
2023-02-15T11:54:55.355Z,15.54
2023-02-15T11:57:34.112Z,16.40
2023-02-15T12:00:16.164Z,18.11
2023-02-15T12:02:54.660Z,17.84
2023-02-15T12:05:28.315Z,17.93
2023-02-15T12:08:09.638Z,17.65
2023-02-15T12:10:45.731Z,17.90
2023-02-15T12:13:24.365Z,16.59
2023-02-15T12:16:01.763Z,17.19
2023-02-15T12:18:48.400Z,15.91
2023-02-15T12:21:37.832Z,16.75
2023-02-15T12:24:31.972Z,18.58
2023-02-15T12:27:27.527Z,16.82
2023-02-15T12:30:12.395Z,18.24
2023-02-15T12:33:04.568Z,17.83
2023-02-15T12:35:41.049Z,18.56
2023-02-15T12:38:15.529Z,18.15
2023-02-15T12:41:03.992Z,16.90
2023-02-15T12:43:40.639Z,18.10
2023-02-15T12:46:27.779Z,18.01
2023-02-15T12:49:21.764Z,18.30
2023-02-15T12:51:59.423Z,19.47
2023-02-15T12:54:43.465Z,16.82
2023-02-15T12:57:32.691Z,16.56
2023-02-15T13:00:07.968Z,17.39
2023-02-15T13:02:50.980Z,17.18
2023-02-15T13:05:39.681Z,18.58
2023-02-15T13:08:17.290Z,17.20
2023-02-15T13:11:11.903Z,17.39
2023-02-15T13:14:03.134Z,17.14
2023-02-15T13:16:38.812Z,17.66
2023-02-15T13:19:21.758Z,16.55
2023-02-15T13:21:57.522Z,16.35
2023-02-15T13:24:39.299Z,18.08
2023-02-15T13:27:19.440Z,17.32
2023-02-15T13:30:02.259Z,18.14
2023-02-15T13:32:38.738Z,16.75
2023-02-15T13:35:19.120Z,18.91
2023-02-15T13:38:23.253Z,17.52
2023-02-15T13:40:58.482Z,17.80
2023-02-15T13:43:49.209Z,18.77
2023-02-15T13:46:36.867Z,17.98
2023-02-15T13:49:35.862Z,17.96
2023-02-15T13:52:16.300Z,17.85
2023-02-15T13:58:12.283Z,18.23
2023-02-15T14:01:02.679Z,19.26
2023-02-15T14:03:49.143Z,19.13
2023-02-15T14:06:44.751Z,20.14
2023-02-15T14:09:53.576Z,20.80
2023-02-15T14:12:47.035Z,19.28
2023-02-15T14:15:31.965Z,20.19
2023-02-15T14:18:37.912Z,20.36
2023-02-15T14:21:16.625Z,20.18
2023-02-15T14:24:12.559Z,19.31
2023-02-15T14:26:56.003Z,20.00
2023-02-15T14:29:57.815Z,20.52
2023-02-15T14:32:37.258Z,20.06
2023-02-15T14:35:18.016Z,19.55
2023-02-15T14:38:05.310Z,19.41
2023-02-15T14:41:04.485Z,20.32
2023-02-15T14:43:54.882Z,19.50
2023-02-15T14:46:38.687Z,19.78
2023-02-15T14:49:32.097Z,20.07
2023-02-15T14:52:09.813Z,18.74
2023-02-15T14:54:46.471Z,18.69
2023-02-15T14:57:21.206Z,19.47
2023-02-15T15:00:02.698Z,18.09
2023-02-15T15:02:54.555Z,18.84
2023-02-15T15:05:37.973Z,18.73
2023-02-15T15:08:15.647Z,18.28
2023-02-15T15:10:52.626Z,18.22
2023-02-15T15:13:38.851Z,18.59
2023-02-15T15:16:29.748Z,18.38
2023-02-15T15:19:01.524Z,18.93
2023-02-15T15:21:54.630Z,18.63
2023-02-15T15:24:43.479Z,18.82
2023-02-15T15:27:44.354Z,18.97
2023-02-15T15:30:26.844Z,18.30
2023-02-15T15:33:00.624Z,18.74
2023-02-15T15:35:34.098Z,18.24
2023-02-15T15:38:33.693Z,17.96
2023-02-15T15:41:22.317Z,17.98
2023-02-15T15:44:01.695Z,18.09
2023-02-15T15:46:47.230Z,17.28
2023-02-15T15:49:21.520Z,17.23
2023-02-15T15:51:52.673Z,18.16
2023-02-15T15:54:26.242Z,17.89
2023-02-15T15:57:01.266Z,17.48
2023-02-15T15:59:36.777Z,17.01
2023-02-15T16:02:09.639Z,16.93
2023-02-15T16:04:40.193Z,17.27
2023-02-15T16:07:22.286Z,16.67
2023-02-15T16:10:05.195Z,16.95
2023-02-15T16:12:41.509Z,17.36
2023-02-15T16:15:21.251Z,16.95
2023-02-15T16:17:56.107Z,16.89
2023-02-15T16:20:35.568Z,16.87
2023-02-15T16:23:24.473Z,17.47
2023-02-15T16:25:59.295Z,16.91
2023-02-15T16:28:31.366Z,16.56
2023-02-15T16:31:16.563Z,17.43
2023-02-15T16:33:47.809Z,17.23
2023-02-15T16:36:26.621Z,17.36
2023-02-15T16:39:03.201Z,16.78
2023-02-15T16:41:33.877Z,16.32
2023-02-15T16:44:07.335Z,16.72
2023-02-15T16:46:42.197Z,16.42
2023-02-15T16:49:27.656Z,16.68
2023-02-15T16:52:09.865Z,16.38
2023-02-15T16:54:41.924Z,16.36
2023-02-15T16:57:24.587Z,16.26
2023-02-15T16:59:59.758Z,16.70
2023-02-15T17:02:54.344Z,16.76
2023-02-15T17:05:19.640Z,16.58
2023-02-15T17:08:08.399Z,16.78
2023-02-15T17:10:42.981Z,16.52
2023-02-15T17:13:15.811Z,16.65
2023-02-15T17:16:04.986Z,16.31
2023-02-15T17:18:44.724Z,16.16
2023-02-15T17:21:20.910Z,15.82
2023-02-15T17:23:53.956Z,16.47
2023-02-15T17:26:27.423Z,16.02
2023-02-15T17:29:01.327Z,15.94
2023-02-15T17:31:35.196Z,16.12
2023-02-15T17:34:06.234Z,16.01
2023-02-15T17:36:36.855Z,15.89
2023-02-15T17:39:12.231Z,16.08
2023-02-15T17:41:43.590Z,15.79
2023-02-15T17:44:15.588Z,16.22
2023-02-15T17:46:46.433Z,15.59
2023-02-15T17:49:19.978Z,16.19
2023-02-15T17:51:50.556Z,15.07
2023-02-15T17:54:38.877Z,15.85
2023-02-15T17:57:14.865Z,16.21
2023-02-15T18:00:04.634Z,16.03
2023-02-15T18:02:55.138Z,15.85
2023-02-15T18:05:44.904Z,15.94
2023-02-15T18:08:36.410Z,16.22
2023-02-15T18:11:25.253Z,16.30
2023-02-15T18:13:57.389Z,16.03
2023-02-15T18:16:33.525Z,15.89
2023-02-15T18:19:06.357Z,16.02
2023-02-15T18:21:36.957Z,15.93
2023-02-15T18:24:09.269Z,16.25
2023-02-15T18:26:40.551Z,16.05
2023-02-15T18:29:11.638Z,15.81
2023-02-15T18:31:43.384Z,15.88
2023-02-15T18:34:25.533Z,15.40
2023-02-15T18:36:57.393Z,16.49
2023-02-15T18:39:44.601Z,16.14
2023-02-15T18:42:24.605Z,16.00
2023-02-15T18:44:57.693Z,15.76
2023-02-15T18:47:28.737Z,16.48
2023-02-15T18:49:59.524Z,16.90
2023-02-15T18:52:33.032Z,17.01
2023-02-15T18:55:08.303Z,16.69
2023-02-15T18:57:38.897Z,16.58
2023-02-15T19:00:17.897Z,16.69
2023-02-15T19:02:49.318Z,16.84
2023-02-15T19:05:20.211Z,16.52
2023-02-15T19:07:51.999Z,16.57
2023-02-15T19:10:28.916Z,16.64
2023-02-15T19:12:59.876Z,16.48
2023-02-15T19:15:32.850Z,16.16
2023-02-15T19:18:03.443Z,15.92
2023-02-15T19:20:36.969Z,16.02
2023-02-15T19:23:20.919Z,16.24
2023-02-15T19:25:52.967Z,16.17
2023-02-15T19:28:32.698Z,16.21
2023-02-15T19:31:03.432Z,15.90
2023-02-15T19:33:34.806Z,15.96
2023-02-15T19:36:07.593Z,16.25
2023-02-15T19:38:38.164Z,15.98
2023-02-15T19:41:12.064Z,15.95
2023-02-15T19:43:42.763Z,16.31
2023-02-15T19:46:16.317Z,16.45
2023-02-15T19:48:48.904Z,16.48
2023-02-15T19:51:21.023Z,16.50
2023-02-15T19:53:52.010Z,16.37
2023-02-15T19:56:24.581Z,15.84
2023-02-15T19:58:59.491Z,15.88
2023-02-15T20:01:31.225Z,16.20
2023-02-15T20:04:03.326Z,16.55
2023-02-15T20:06:35.610Z,16.20
2023-02-15T20:09:06.759Z,16.19
2023-02-15T20:11:37.565Z,16.03
2023-02-15T20:14:11.176Z,16.63
2023-02-15T20:16:41.789Z,16.46
2023-02-15T20:19:13.482Z,16.34
2023-02-15T20:21:46.809Z,16.26
2023-02-15T20:24:21.361Z,16.51
2023-02-15T20:26:52.061Z,16.08
2023-02-15T20:29:24.265Z,16.14
2023-02-15T20:31:55.605Z,15.86
2023-02-15T20:34:27.706Z,15.99
2023-02-15T20:36:59.009Z,16.25
2023-02-15T20:39:29.587Z,15.81
2023-02-15T20:42:00.249Z,15.90
2023-02-15T20:44:34.692Z,15.80
2023-02-15T20:47:05.272Z,15.84
2023-02-15T20:49:38.230Z,15.48
2023-02-15T20:52:12.276Z,15.55
2023-02-15T20:54:43.392Z,15.57
2023-02-15T20:57:14.972Z,15.29
2023-02-15T20:59:46.278Z,15.18
2023-02-15T21:02:24.061Z,15.27
2023-02-15T21:04:56.018Z,15.17
2023-02-15T21:07:27.774Z,15.15
2023-02-15T21:10:00.774Z,14.83
2023-02-15T21:12:31.885Z,14.25
2023-02-15T21:15:02.529Z,14.55
2023-02-15T21:17:33.325Z,15.21
2023-02-15T21:20:04.190Z,14.76
2023-02-15T21:22:35.052Z,15.68
2023-02-15T21:25:06.104Z,15.29
2023-02-15T21:27:38.144Z,15.00
2023-02-15T21:30:18.755Z,14.60
2023-02-15T21:32:49.505Z,14.23
2023-02-15T21:35:25.158Z,14.42
2023-02-15T21:37:57.368Z,13.99
2023-02-15T21:40:31.579Z,14.18
2023-02-15T21:43:20.325Z,14.71
2023-02-15T21:46:09.306Z,14.68
2023-02-15T21:48:40.756Z,15.22
2023-02-15T21:51:30.005Z,15.09
2023-02-15T21:54:00.615Z,15.18
2023-02-15T21:56:32.872Z,14.96
2023-02-15T21:59:03.542Z,14.92
2023-02-15T22:01:34.452Z,15.04
2023-02-15T22:04:07.126Z,14.85
2023-02-15T22:06:39.377Z,14.64
2023-02-15T22:09:18.892Z,15.00
2023-02-15T22:11:52.378Z,14.82
2023-02-15T22:14:44.651Z,15.39
2023-02-15T22:17:21.504Z,15.00
2023-02-15T22:19:53.198Z,14.78
2023-02-15T22:22:26.258Z,14.48
2023-02-15T22:24:58.996Z,14.39
2023-02-15T22:27:33.004Z,14.56
2023-02-15T22:30:04.441Z,14.94
2023-02-15T22:32:36.910Z,14.64
2023-02-15T22:35:11.652Z,15.26
2023-02-15T22:37:42.446Z,15.23
2023-02-15T22:40:16.163Z,14.82
2023-02-15T22:42:52.179Z,14.79
2023-02-15T22:45:25.678Z,14.70
2023-02-15T22:48:01.669Z,15.27
2023-02-15T22:50:38.297Z,15.22
2023-02-15T22:53:11.513Z,15.64
2023-02-15T22:55:42.097Z,15.37
2023-02-15T22:58:24.248Z,15.40
2023-02-15T23:00:58.603Z,15.43
2023-02-15T23:03:31.606Z,14.73
2023-02-15T23:06:02.463Z,14.95
2023-02-15T23:08:33.774Z,15.30
2023-02-15T23:11:04.810Z,14.94
2023-02-15T23:13:35.730Z,15.19
2023-02-15T23:16:08.904Z,15.55
2023-02-15T23:18:46.778Z,15.37
2023-02-15T23:21:29.245Z,15.33
2023-02-15T23:24:02.864Z,15.29
2023-02-15T23:26:33.863Z,15.72
2023-02-15T23:29:04.989Z,15.76
2023-02-15T23:31:38.789Z,15.63
2023-02-15T23:34:21.226Z,15.52
2023-02-15T23:36:52.419Z,16.12
2023-02-15T23:39:43.669Z,15.49
2023-02-15T23:42:17.228Z,15.34
2023-02-15T23:44:50.762Z,15.56
2023-02-15T23:47:48.720Z,15.70
2023-02-15T23:50:24.616Z,15.30
2023-02-15T23:52:56.831Z,15.66
2023-02-15T23:55:31.572Z,15.73
2023-02-15T23:58:05.607Z,15.64
